createdAt,value
2023-01-30T00:00:04.801Z,1010.38
2023-01-30T00:05:05.312Z,1010.35
2023-01-30T00:10:04.704Z,1010.31
2023-01-30T00:15:03.461Z,1010.24
2023-01-30T00:20:04.532Z,1010.16
2023-01-30T00:25:03.628Z,1010.16
2023-01-30T00:30:04.682Z,1010.1
2023-01-30T00:35:03.607Z,1009.92
2023-01-30T00:40:04.496Z,1009.74
2023-01-30T00:45:03.360Z,1009.71
2023-01-30T00:50:04.775Z,1009.72
2023-01-30T00:55:03.458Z,1009.61
2023-01-30T01:00:10.613Z,1009.42
2023-01-30T01:05:03.337Z,1009.25
2023-01-30T01:10:04.172Z,1009.1
2023-01-30T01:15:03.360Z,1009.04
2023-01-30T01:20:05.555Z,1009.0
2023-01-30T01:25:03.454Z,1009.02
2023-01-30T01:30:04.578Z,1008.98
2023-01-30T01:35:03.270Z,1008.89
2023-01-30T01:40:04.386Z,1008.83
2023-01-30T01:45:03.453Z,1008.76
2023-01-30T01:50:04.487Z,1008.76
2023-01-30T01:55:03.437Z,1008.77
2023-01-30T02:00:04.581Z,1008.75
2023-01-30T02:05:03.295Z,1008.73
2023-01-30T02:10:04.431Z,1008.81
2023-01-30T02:15:03.341Z,1008.81
2023-01-30T02:20:04.448Z,1008.76
2023-01-30T02:25:03.213Z,1008.7
2023-01-30T02:30:04.551Z,1008.64
2023-01-30T02:35:03.333Z,1008.76
2023-01-30T02:40:04.582Z,1008.85
2023-01-30T02:45:03.377Z,1009.08
2023-01-30T02:50:04.496Z,1009.11
2023-01-30T02:55:03.238Z,1009.02
2023-01-30T03:00:04.479Z,1008.92
2023-01-30T03:05:03.277Z,1008.86
2023-01-30T03:10:04.449Z,1008.9
2023-01-30T03:15:04.580Z,1008.87
2023-01-30T03:20:04.525Z,1008.69
2023-01-30T03:25:03.448Z,1008.52
2023-01-30T03:30:04.318Z,1008.41
2023-01-30T03:35:03.280Z,1008.44
2023-01-30T03:40:04.411Z,1008.41
2023-01-30T03:45:03.345Z,1008.48
2023-01-30T03:50:04.485Z,1008.41
2023-01-30T03:55:03.436Z,1008.44
2023-01-30T04:00:04.343Z,1008.4
2023-01-30T04:05:03.295Z,1008.36
2023-01-30T04:10:05.249Z,1008.3
2023-01-30T04:15:03.369Z,1008.17
2023-01-30T04:20:04.486Z,1008.01
2023-01-30T04:25:03.406Z,1007.91
2023-01-30T04:30:04.293Z,1007.89
2023-01-30T04:35:03.299Z,1007.89
2023-01-30T04:40:04.578Z,1007.92
2023-01-30T04:45:03.371Z,1007.9
2023-01-30T04:50:04.529Z,1007.92
2023-01-30T04:55:04.495Z,1007.84
2023-01-30T05:00:04.310Z,1007.83
2023-01-30T05:05:03.246Z,1007.86
2023-01-30T05:10:04.401Z,1007.85
2023-01-30T05:15:03.393Z,1007.8
2023-01-30T05:20:04.409Z,1007.73
2023-01-30T05:25:03.427Z,1007.59
2023-01-30T05:30:04.289Z,1007.59
2023-01-30T05:35:03.415Z,1007.57
2023-01-30T05:40:04.368Z,1007.59
2023-01-30T05:45:03.320Z,1007.64
2023-01-30T05:50:04.449Z,1007.58
2023-01-30T05:55:03.473Z,1007.52
2023-01-30T06:00:04.324Z,1007.57
2023-01-30T06:05:03.504Z,1007.51
2023-01-30T06:10:04.198Z,1007.47
2023-01-30T06:15:03.335Z,1007.47
2023-01-30T06:20:04.246Z,1007.49
2023-01-30T06:25:03.637Z,1007.44
2023-01-30T06:30:04.047Z,1007.46
2023-01-30T06:35:03.252Z,1007.45
2023-01-30T06:40:04.389Z,1007.41
2023-01-30T06:45:03.365Z,1007.31
2023-01-30T06:50:04.423Z,1007.2
2023-01-30T06:55:03.383Z,1007.2
2023-01-30T07:00:04.291Z,1007.17
2023-01-30T07:05:03.333Z,1007.15
2023-01-30T07:10:08.128Z,1007.15
2023-01-30T07:15:03.441Z,1007.16
2023-01-30T07:20:04.253Z,1007.12
2023-01-30T07:25:03.432Z,1007.19
2023-01-30T07:30:04.679Z,1007.28
2023-01-30T07:35:05.813Z,1007.32
2023-01-30T07:40:09.605Z,1007.34
2023-01-30T07:45:03.314Z,1007.28
2023-01-30T07:50:04.525Z,1007.32
2023-01-30T07:55:03.486Z,1007.32
2023-01-30T08:00:04.581Z,1007.32
2023-01-30T08:05:05.890Z,1007.39
2023-01-30T08:10:04.358Z,1007.37
2023-01-30T08:15:03.364Z,1007.32
2023-01-30T08:20:04.438Z,1007.27
2023-01-30T08:25:03.380Z,1007.25
2023-01-30T08:30:04.285Z,1007.3
2023-01-30T08:35:03.270Z,1007.45
2023-01-30T08:40:04.321Z,1007.55
2023-01-30T08:45:04.366Z,1007.65
2023-01-30T08:50:04.449Z,1007.65
2023-01-30T08:55:03.403Z,1007.73
2023-01-30T09:00:04.488Z,1007.73
2023-01-30T09:05:03.306Z,1007.78
2023-01-30T09:10:04.356Z,1007.86
2023-01-30T09:15:04.331Z,1007.83
2023-01-30T09:20:04.441Z,1007.89
2023-01-30T09:25:03.507Z,1007.89
2023-01-30T09:30:04.318Z,1007.92
2023-01-30T09:35:03.443Z,1007.99
2023-01-30T09:40:04.581Z,1008.05
2023-01-30T09:45:03.341Z,1008.12
2023-01-30T09:50:04.401Z,1008.17
2023-01-30T09:55:03.435Z,1008.17
2023-01-30T10:00:04.477Z,1008.21
2023-01-30T10:05:03.306Z,1008.29
2023-01-30T10:10:04.409Z,1008.32
2023-01-30T10:15:03.391Z,1008.35
2023-01-30T10:20:04.347Z,1008.42
2023-01-30T10:25:03.419Z,1008.47
2023-01-30T10:30:04.512Z,1008.62
2023-01-30T10:35:03.252Z,1008.7
2023-01-30T10:40:04.609Z,1008.8
2023-01-30T10:45:03.951Z,1008.9
2023-01-30T10:50:04.434Z,1009.04
2023-01-30T10:55:03.255Z,1009.08
2023-01-30T11:00:04.474Z,1009.12
2023-01-30T11:05:03.662Z,1009.16
2023-01-30T11:10:04.375Z,1009.22
2023-01-30T11:15:03.297Z,1009.29
2023-01-30T11:20:05.792Z,1009.33
2023-01-30T11:25:03.436Z,1009.42
2023-01-30T11:30:04.468Z,1009.45
2023-01-30T11:35:03.229Z,1009.42
2023-01-30T11:40:04.551Z,1009.43
2023-01-30T11:45:16.461Z,1009.46
2023-01-30T11:50:05.357Z,1009.55
2023-01-30T11:55:03.425Z,1009.62
2023-01-30T12:00:04.467Z,1009.66
2023-01-30T12:05:03.479Z,1009.62
2023-01-30T12:10:04.370Z,1009.69
2023-01-30T12:15:03.402Z,1009.72
2023-01-30T12:20:04.437Z,1009.75
2023-01-30T12:25:04.511Z,1009.82
2023-01-30T12:30:04.347Z,1009.84
2023-01-30T12:35:03.433Z,1009.85
2023-01-30T12:40:09.307Z,1009.86
2023-01-30T12:45:04.348Z,1009.88
2023-01-30T12:50:04.364Z,1009.92
2023-01-30T12:55:03.399Z,1009.87
2023-01-30T13:00:04.276Z,1009.86
2023-01-30T13:05:04.449Z,1009.84
2023-01-30T13:10:04.393Z,1009.83
2023-01-30T13:15:03.358Z,1009.85
2023-01-30T13:20:04.461Z,1009.8
2023-01-30T13:25:03.392Z,1009.85
2023-01-30T13:30:04.413Z,1009.83
2023-01-30T13:35:03.646Z,1009.77
2023-01-30T13:40:04.347Z,1009.77
2023-01-30T13:45:04.343Z,1009.86
2023-01-30T13:50:04.476Z,1009.81
2023-01-30T13:55:03.542Z,1009.66
2023-01-30T14:00:04.466Z,1009.61
2023-01-30T14:05:03.554Z,1009.53
2023-01-30T14:10:04.313Z,1009.49
2023-01-30T14:15:03.361Z,1009.53
2023-01-30T14:20:04.464Z,1009.54
2023-01-30T14:25:03.542Z,1009.56
2023-01-30T14:30:05.553Z,1009.52
2023-01-30T14:35:03.480Z,1009.4
2023-01-30T14:40:05.541Z,1009.4
2023-01-30T14:45:03.316Z,1009.36
2023-01-30T14:50:04.428Z,1009.27
2023-01-30T14:55:15.522Z,1009.21
2023-01-30T15:00:15.825Z,1009.16
2023-01-30T15:05:03.510Z,1009.11
2023-01-30T15:10:04.301Z,1009.03
2023-01-30T15:15:03.385Z,1008.94
2023-01-30T15:20:04.423Z,1008.84
2023-01-30T15:25:03.411Z,1008.79
2023-01-30T15:30:04.486Z,1008.73
2023-01-30T15:35:03.215Z,1008.63
2023-01-30T15:40:04.426Z,1008.5
2023-01-30T15:45:03.551Z,1008.51
2023-01-30T15:50:04.458Z,1008.36
2023-01-30T15:55:03.428Z,1008.12
2023-01-30T16:00:04.580Z,1007.98
2023-01-30T16:05:03.589Z,1007.84
2023-01-30T16:10:07.539Z,1007.78
2023-01-30T16:15:17.381Z,1007.67
2023-01-30T16:20:04.372Z,1007.6
2023-01-30T16:25:03.343Z,1007.59
2023-01-30T16:30:07.668Z,1007.5
2023-01-30T16:35:03.461Z,1007.29
2023-01-30T16:40:04.352Z,1007.26
2023-01-30T16:45:03.310Z,1007.19
2023-01-30T16:50:04.478Z,1007.25
2023-01-30T16:55:03.380Z,1007.12
2023-01-30T17:00:04.550Z,1007.06
2023-01-30T17:05:03.349Z,1006.99
2023-01-30T17:10:04.538Z,1006.92
2023-01-30T17:15:03.474Z,1006.9
2023-01-30T17:20:04.510Z,1006.97
2023-01-30T17:25:04.512Z,1006.94
2023-01-30T17:30:04.512Z,1006.75
2023-01-30T17:35:03.449Z,1006.62
2023-01-30T17:40:04.332Z,1006.59
2023-01-30T17:45:03.325Z,1006.47
2023-01-30T17:50:04.465Z,1006.39
2023-01-30T17:55:03.479Z,1006.38
2023-01-30T18:00:04.433Z,1006.39
2023-01-30T18:05:03.574Z,1006.23
2023-01-30T18:10:04.558Z,1006.05
2023-01-30T18:15:03.324Z,1006.09
2023-01-30T18:20:04.355Z,1006.05
2023-01-30T18:25:03.419Z,1006.02
2023-01-30T18:30:04.256Z,1005.95
2023-01-30T18:35:03.300Z,1005.84
2023-01-30T18:40:04.128Z,1005.61
2023-01-30T18:45:03.263Z,1005.56
2023-01-30T18:50:04.416Z,1005.48
2023-01-30T18:55:03.394Z,1005.41
2023-01-30T19:00:04.536Z,1005.29
2023-01-30T19:05:03.515Z,1005.16
2023-01-30T19:10:04.553Z,1005.3
2023-01-30T19:15:04.413Z,1005.4
2023-01-30T19:20:04.424Z,1005.41
2023-01-30T19:25:03.372Z,1005.34
2023-01-30T19:30:04.447Z,1005.33
2023-01-30T19:35:03.430Z,1005.13
2023-01-30T19:40:04.462Z,1005.02
2023-01-30T19:45:03.339Z,1004.99
2023-01-30T19:50:04.382Z,1004.85
2023-01-30T19:55:03.425Z,1004.62
2023-01-30T20:00:05.709Z,1004.55
2023-01-30T20:05:03.430Z,1004.59
2023-01-30T20:10:04.259Z,1004.68
2023-01-30T20:15:03.390Z,1004.55
2023-01-30T20:20:05.918Z,1004.48
2023-01-30T20:25:03.412Z,1004.67
2023-01-30T20:30:04.709Z,1004.75
2023-01-30T20:35:03.457Z,1004.61
2023-01-30T20:40:05.202Z,1004.59
2023-01-30T20:45:03.583Z,1004.67
2023-01-30T20:50:04.445Z,1005.0
2023-01-30T20:55:03.889Z,1005.0
2023-01-30T21:00:07.106Z,1004.94
2023-01-30T21:05:04.026Z,1005.02
2023-01-30T21:10:04.714Z,1005.17
2023-01-30T21:15:03.367Z,1005.36
2023-01-30T21:20:04.593Z,1005.64
2023-01-30T21:25:03.403Z,1005.68
2023-01-30T21:30:04.261Z,1005.79
2023-01-30T21:35:03.448Z,1005.93
2023-01-30T21:40:04.593Z,1006.1
2023-01-30T21:45:03.321Z,1006.31
2023-01-30T21:50:04.457Z,1006.42
2023-01-30T21:55:03.466Z,1006.36
2023-01-30T22:00:04.486Z,1006.38
2023-01-30T22:05:03.431Z,1006.38
2023-01-30T22:10:04.282Z,1006.39
2023-01-30T22:15:04.340Z,1006.3
2023-01-30T22:20:04.496Z,1006.4
2023-01-30T22:25:03.551Z,1006.53
2023-01-30T22:30:04.558Z,1006.72
2023-01-30T22:35:03.480Z,1006.8
2023-01-30T22:40:04.412Z,1006.76
2023-01-30T22:45:03.309Z,1006.83
2023-01-30T22:50:04.747Z,1006.92
2023-01-30T22:55:03.476Z,1006.9
2023-01-30T23:00:05.684Z,1006.92
2023-01-30T23:05:03.542Z,1006.97
2023-01-30T23:10:04.595Z,1007.02
2023-01-30T23:15:04.348Z,1007.05
2023-01-30T23:20:04.435Z,1007.18
2023-01-30T23:25:03.470Z,1007.27
2023-01-30T23:30:04.443Z,1007.31
2023-01-30T23:35:03.248Z,1007.31
2023-01-30T23:40:04.629Z,1007.3
2023-01-30T23:45:03.378Z,1007.25
2023-01-30T23:50:05.166Z,1007.13
2023-01-30T23:55:03.525Z,1007.19
